Change Date:Time:

Metar of : 2/18/2018 2300UTC
Metar
METAR OPMT 00000KT 4000 FU NSC 15/11 Q1012 NOSIG RH 78%
OPBDN 182300U 02302KT 200 fog 20/19 Q10091 RH91%
OPBKR 00000KT 6000 NSC 15/11 78%
OPBR 00000KT 6000 NSC 14/11 83%
OPBW 00000KT 1500 BR NSC 13/11 Q1010 88%
OPBW( CITY) 00000KT 2000 FU NSC 15/11 78%
OPCK 00000KT 9999 NSC 07/01 66%
OPDG 31002KT 3000 BR NSC 13/11 Q1010 88%
OPDU 182300Z 05002KT 3000 FU NSC 15/10 RH 73%
OPFA 00000KT 4000 FU NSC 13/09 Q1013 NOSIG RH 77%
OPGD 182300Z 00000KT 2000 BR NSC 18/16 Q.1011 RH.90%
OPGP 00000KT 7000 NSC 10/05 71%
OPGW 00000KT 2000 BR NSC 10/09 93%
OPJBD 00000KT 2000 BR NSC 12/10 88%
OPJG 00000KT 4000 FU NSC 11/08 Q1013 81%
OPJM 00000KT 4000 FU NSC 11/07 75%
OPKAD 00000KT 5000 FU NSC 14/10 78%
OPKC182300Z 05002KT 5000FU NSC 20/18 Q1009 RH91%
OPKD 182300Z 00000KT 6000 NSC 21/16 Q1008 RH73% NO SIG
OPKL 00000KT 6000 NSC 11/05 65%
OPKP 00000KT 2500 FU NSC 14/10 78%
OPKRL 00000KT 4000 FU NSC 13/11 83%
OPKS 00000KT 4000 FU NSC 13/10 83%
OPLA 00000KT 4000 FU NSC 12/08 Q1013 A29.92 NOSIG RH 74%
OPLA( CITY) 00000 KT 3500 FU NSC 14/07 Q1013 67%
OPLRK 182300Z 00000KT 4000 HZ NSC 17/14 Q1009 RH85%
OPMA 00000KT 4000 FU NSC 09/05 Q1016 73%
OPMB 00000KT 2000 BR NSC 11/09 Q1014 87%
OPME 00000KT 6000 NSC 06/M02 60%
OPMF 00000KT 6000 NSC 10/01 53%
OPMIT 182300Z 00000KT 6000 NSC 21/17 Q1008 RH78%
OPMJ 182300Z 00000KT 2000 fu NSC 12/10 Q.1010 RH.88% BEMP 1000 FU
OPNH 182300Z 00000KT 3000 FU NSC 17/13 Q1007 RH80% NOSIG
OPNPT 00000KT 6000 NSC 12/10 82%
OPOK 00000KT 6000 NSC 11/09 Q1015 87%
OPPG 182300z 00000kt 6000 HZ SKC 13/02 Q1020 Rh48%
OPRK 00000KT 3000 BR NSC 15/13 Q1011 84%
OPRN 00000KT 6000 NSC 10/05 Q1015 NOSIG RMK A2998 RH70%
OPRT 00000KT 6000 NSC 00/M01 Q1022 91%
OPSG 00000KT 4000 FU FEW200 14/10 78%
OPSK 182300Z 09004KT 2000 HZ SCT200 16/12 Q1008 TEMPO 1500 HZ
OPSKT 00000KT 2000 BR 10/09 93%
OPST 00000KT 4000 FU NSC 09/06 Q1013 NOSIG RH80%
OPSW 00000KT 3000 BR FEW100 11/09 Q1014 87%
OPTS 00000KT 3000 BR NSC 12/10 88%
OPUG 00000KT 3000 FU NSC 10/06 74%
CodeW.DirSpeedVisibilityCloud ConditionTempPressureHumidityStation
OPBKR00000KT6000mClear15oC78%Bhakkar
OPBR00000KT6000mClear14oC83%Bahawalnagar
OPBW00000KT1500mMist13oC1010hp88%Bahawalpur
OPCK00000KT9999mClear07oC66%Chakwal
OPDG31002KT3000mMist13oC1010hp88%D-G-KHAN
OPFA00000KT4000mHaze13oC1013hp77%Faisalabad
OPGD00000KT2000mMist18oC1011hp90%Gawadar
OPGP00000KT7000mClear10oC71%GARHI DOPATTA
OPGW00000KT2000mMist10oC93%Gujranwala
OPJBD00000KT2000mMist12oC88%Joharabad
OPJG00000KT4000mHaze11oC1013hp81%Jhang
OPJM00000KT4000mHaze11oC75%Jhelum
OPKAD00000KT5000mHaze14oC78%KOT ADDU
OPKD00000KT6000mClear21oC1008hp73%Hyderabad
OPKL00000KT6000mClear11oC65%Kotli
OPKP00000KT2500mHaze14oC78%Khanpur
OPKRL00000KT4000mHaze13oC83%KAROR (LAYYAH)
OPKS00000KT4000mHaze13oC83%Kasur
OPLA00000KT4000mHaze12oC1013hp74%LAHORE A/P
OPMA00000KT4000mHaze09oC1016hp73%Mangla
OPMB00000KT2000mMist11oC1014hp87%MANDI BAHUDDIN
OPME00000KT6000mClear06oC60%Murree
OPMF00000KT6000mClear10oC53%MUZAFFARABAD
OPMJ00000KT2000mHaze12oC1000hp88%MOHENJO DARO
OPNH00000KT3000mHaze17oC1007hp80%Sh Benazirabad
OPNPT00000KT6000mClear12oC82%NOOR PUR THAL
OPOK00000KT6000mClear11oC1015hp87%Okara
OPPG00000KT6000mHaze13oC1020hp48%Panjgur
OPRK00000KT3000mMist15oC1011hp84%R-Y-KHAN
OPRN00000KT6000mClear10oC1015hp70%CHAKLALA- RAWALPINDI
OPRT00000KT6000mClear00oC1022hp91%Rawalakot
OPSK09004KT2000mPartly Cloudy16oC1008hpSukkur
OPST00000KT4000mHaze09oC1013hp80%SIAL A/P SIALKOT
OPSW00000KT3000mMist11oC1014hp87%Sahiwal
OPTS00000KT3000mMist12oC88%T.T. SINGH
OPUG00000KT3000mHaze10oC74%Gujrat